Time;durP1;ratioP1;P1;durP2;ratioP2;P2;SDS_P1;SDS_P2;PMS_P1;PMS_P2;Temp;Humidity;BMP_temperature;BMP_pressure;BME280_temperature;BME280_humidity;BME280_pressure;Samples;Min_cycle;Max_cycle;Signal;HPM_P1;HPM_P2
2022/03/12 00:00:35;;;;;;;;;;;;;;;;;;5031578;28;19960;-67
2022/03/12 00:03:01;;;;;;;;;;;;;;;;;;5040540;28;19955;-70
2022/03/12 00:05:27;;;;;;;;;;;;;;;;;;5039006;28;19979;-68
2022/03/12 00:07:53;;;;;;;;;;;;;;;;;;5048592;28;19953;-67
2022/03/12 00:10:21;;;;;;;;;;;;;;;;;;5041412;28;20048;-66
2022/03/12 00:12:47;;;;;;;;;;;;;;;;;;5047889;28;20455;-66
2022/03/12 00:15:14;;;;;;;;;;;;;;;;;;5050472;28;20442;-67
2022/03/12 00:17:42;;;;;;;;;;;;;;;;;;5049351;28;20676;-66
2022/03/12 00:20:12;;;;;;;;;;;;;;;;;;5042120;28;19948;-67
2022/03/12 00:22:39;;;;;;;;;;;;;;;;;;5044350;28;20001;-66
2022/03/12 00:25:11;;;;;;;;;;;;;;;;;;5041546;28;19968;-68
2022/03/12 00:27:41;;;;;;;;;;;;;;;;;;5039774;28;20422;-68
2022/03/12 00:30:08;;;;;;;;;;;;;;;;;;5040789;28;20042;-67
2022/03/12 00:32:35;;;;;;;;;;;;;;;;;;5050462;28;19979;-68
2022/03/12 00:35:01;;;;;;;;;;;;;;;;;;5053727;28;19962;-68
2022/03/12 00:37:28;;;;;;;;;;;;;;;;;;5052421;28;19957;-68
2022/03/12 00:39:54;;;;;;;;;;;;;;;;;;5043647;28;19947;-69
2022/03/12 00:42:20;;;;;;;;;;;;;;;;;;5053057;28;19956;-67
2022/03/12 00:44:46;;;;;;;;;;;;;;;;;;5062136;28;19980;-68
2022/03/12 00:47:12;;;;;;;;;;;;;;;;;;5049052;28;19951;-70
2022/03/12 00:49:40;;;;;;;;;;;;;;;;;;4765907;28;10000337;-69
2022/03/12 00:52:06;;;;;;;;;;;;;;;;;;5040239;28;19967;-68
2022/03/12 00:54:33;;;;;;;;;;;;;;;;;;5042564;28;19984;-68
2022/03/12 00:56:59;;;;;;;;;;;;;;;;;;5046010;28;20187;-69
2022/03/12 00:59:25;;;;;;;;;;;;;;;;;;5036205;28;19954;-67
2022/03/12 01:01:51;;;;;;;;;;;;;;;;;;5037801;28;19969;-67
2022/03/12 01:04:17;;;;;;;;;;;;;;;;;;5043270;28;20474;-68
2022/03/12 01:06:45;;;;;;;;;;;;;;;;;;5038530;23;19972;-60
2022/03/12 01:09:11;;;;;;;;;;;;;;;;;;5030467;28;19951;-60
2022/03/12 01:11:39;;;;;;;;;;;;;;;;;;5030831;28;19954;-64
2022/03/12 01:14:05;;;;;;;;;;;;;;;;;;5020831;28;20073;-63
2022/03/12 01:16:32;;;;;;;;;;;;;;;;;;5011196;28;19956;-63
2022/03/12 01:18:58;;;;;;;;;;;;;;;;;;5019994;28;20319;-63
2022/03/12 01:21:24;;;;;;;;;;;;;;;;;;5020164;28;19949;-63
2022/03/12 01:23:51;;;;;;;;;;;;;;;;;;5010635;28;20280;-63
2022/03/12 01:26:18;;;;;;;;;;;;;;;;;;5010723;28;19970;-63
2022/03/12 01:28:44;;;;;;;;;;;;;;;;;;5010977;28;19957;-63
2022/03/12 01:31:10;;;;;;;;;;;;;;;;;;5010919;28;20365;-64
2022/03/12 01:33:36;;;;;;;;;;;;;;;;;;5010567;28;19971;-62
2022/03/12 01:36:02;;;;;;;;;;;;;;;;;;5010679;28;20335;-61
2022/03/12 01:38:28;;;;;;;;;;;;;;;;;;5010148;28;20040;-60
2022/03/12 01:40:55;;;;;;;;;;;;;;;;;;5010547;28;19955;-60
2022/03/12 01:43:22;;;;;;;;;;;;;;;;;;5010461;28;20361;-60
2022/03/12 01:45:48;;;;;;;;;;;;;;;;;;5010103;28;19966;-61
2022/03/12 01:48:14;;;;;;;;;;;;;;;;;;5013556;28;20416;-60
2022/03/12 01:50:40;;;;;;;;;;;;;;;;;;5010722;28;20036;-60
2022/03/12 01:53:07;;;;;;;;;;;;;;;;;;5022024;28;19975;-60
2022/03/12 01:55:33;;;;;;;;;;;;;;;;;;5018234;28;20072;-61
2022/03/12 01:58:02;;;;;;;;;;;;;;;;;;5012915;28;19957;-60
2022/03/12 02:00:28;;;;;;;;;;;;;;;;;;5008988;28;20420;-59
2022/03/12 02:02:54;;;;;;;;;;;;;;;;;;5017999;28;19942;-59
2022/03/12 02:05:20;;;;;;;;;;;;;;;;;;5016537;28;20016;-59
2022/03/12 02:07:47;;;;;;;;;;;;;;;;;;5009655;28;19957;-58
2022/03/12 02:10:18;;;;;;;;;;;;;;;;;;5015885;28;19974;-60
2022/03/12 02:12:44;;;;;;;;;;;;;;;;;;5021788;28;19981;-59
2022/03/12 02:15:10;;;;;;;;;;;;;;;;;;5021100;28;19958;-61
2022/03/12 02:17:36;;;;;;;;;;;;;;;;;;5015229;28;19960;-61
2022/03/12 02:20:03;;;;;;;;;;;;;;;;;;5013383;28;19950;-60
2022/03/12 02:22:29;;;;;;;;;;;;;;;;;;5014420;28;19953;-60
2022/03/12 02:24:55;;;;;;;;;;;;;;;;;;5018468;28;19966;-60
2022/03/12 02:27:25;;;;;;;;;;;;;;;;;;5021784;28;19947;-59
2022/03/12 02:29:51;;;;;;;;;;;;;;;;;;5020639;28;19948;-60
2022/03/12 02:32:18;;;;;;;;;;;;;;;;;;5012143;28;20412;-59
2022/03/12 02:34:44;;;;;;;;;;;;;;;;;;5015642;28;20436;-58
2022/03/12 02:37:10;;;;;;;;;;;;;;;;;;5013448;28;20041;-60
2022/03/12 02:39:37;;;;;;;;;;;;;;;;;;5021873;28;20330;-60
2022/03/12 02:42:06;;;;;;;;;;;;;;;;;;5018298;28;20425;-60
2022/03/12 02:44:32;;;;;;;;;;;;;;;;;;5015959;28;19966;-61
2022/03/12 02:46:59;;;;;;;;;;;;;;;;;;5025265;28;20114;-59
2022/03/12 02:49:27;;;;;;;;;;;;;;;;;;5009910;28;19974;-59
2022/03/12 02:51:53;;;;;;;;;;;;;;;;;;5007513;28;19975;-59
2022/03/12 02:54:19;;;;;;;;;;;;;;;;;;5009761;28;19967;-59
2022/03/12 02:56:46;;;;;;;;;;;;;;;;;;5021795;28;20410;-59
2022/03/12 02:59:14;;;;;;;;;;;;;;;;;;5007688;28;19945;-59
2022/03/12 03:01:40;;;;;;;;;;;;;;;;;;5010748;28;20654;-59
2022/03/12 03:04:06;;;;;;;;;;;;;;;;;;5011999;28;20369;-59
2022/03/12 03:06:33;;;;;;;;;;;;;;;;;;5014264;28;19977;-59
2022/03/12 03:09:00;;;;;;;;;;;;;;;;;;5004182;28;20035;-59
2022/03/12 03:11:26;;;;;;;;;;;;;;;;;;5017669;28;19954;-59
2022/03/12 03:13:54;;;;;;;;;;;;;;;;;;5020499;28;19967;-59
2022/03/12 03:16:21;;;;;;;;;;;;;;;;;;5010852;28;20452;-58
2022/03/12 03:18:50;;;;;;;;;;;;;;;;;;5020114;28;19952;-59
2022/03/12 03:21:17;;;;;;;;;;;;;;;;;;5024243;28;19969;-62
2022/03/12 03:23:43;;;;;;;;;;;;;;;;;;5011451;28;19975;-62
2022/03/12 03:26:09;;;;;;;;;;;;;;;;;;5001895;28;19966;-63
2022/03/12 03:28:35;;;;;;;;;;;;;;;;;;5019603;28;19956;-63
2022/03/12 03:31:01;;;;;;;;;;;;;;;;;;5022762;28;19948;-63
2022/03/12 03:33:28;;;;;;;;;;;;;;;;;;5024654;28;19968;-63
2022/03/12 03:35:54;;;;;;;;;;;;;;;;;;5011537;28;19949;-63
2022/03/12 03:38:20;;;;;;;;;;;;;;;;;;5012467;28;20048;-62
2022/03/12 03:40:46;;;;;;;;;;;;;;;;;;5022341;28;19954;-63
2022/03/12 03:43:13;;;;;;;;;;;;;;;;;;5024643;28;20461;-62
2022/03/12 03:45:39;;;;;;;;;;;;;;;;;;5021341;28;19960;-62
2022/03/12 03:48:05;;;;;;;;;;;;;;;;;;5011275;28;20331;-63
2022/03/12 03:50:31;;;;;;;;;;;;;;;;;;5009335;28;19949;-62
2022/03/12 03:52:58;;;;;;;;;;;;;;;;;;5022240;28;19950;-64
2022/03/12 03:55:25;;;;;;;;;;;;;;;;;;5017929;28;19952;-64
2022/03/12 03:57:54;;;;;;;;;;;;;;;;;;5021343;28;19954;-64
2022/03/12 04:00:22;;;;;;;;;;;;;;;;;;5018998;28;19955;-64
2022/03/12 04:02:48;;;;;;;;;;;;;;;;;;5015710;28;19956;-61
2022/03/12 04:05:15;;;;;;;;;;;;;;;;;;5021390;28;20064;-62
2022/03/12 04:07:41;;;;;;;;;;;;;;;;;;5015306;28;19978;-62
2022/03/12 04:10:08;;;;;;;;;;;;;;;;;;5015467;28;20054;-61
2022/03/12 04:12:34;;;;;;;;;;;;;;;;;;5018651;28;20394;-62
2022/03/12 04:15:00;;;;;;;;;;;;;;;;;;5017207;28;19985;-63
2022/03/12 04:17:28;;;;;;;;;;;;;;;;;;5025409;28;19954;-63
2022/03/12 04:19:54;;;;;;;;;;;;;;;;;;5021647;28;20353;-65
2022/03/12 04:22:20;;;;;;;;;;;;;;;;;;5017882;28;19957;-64
2022/03/12 04:24:46;;;;;;;;;;;;;;;;;;5016293;28;20059;-65
2022/03/12 04:27:12;;;;;;;;;;;;;;;;;;5019690;28;19964;-64
2022/03/12 04:29:39;;;;;;;;;;;;;;;;;;5022425;28;19947;-64
2022/03/12 04:32:08;;;;;;;;;;;;;;;;;;5020733;28;20027;-63
2022/03/12 04:34:34;;;;;;;;;;;;;;;;;;5014700;28;19963;-64
2022/03/12 04:37:00;;;;;;;;;;;;;;;;;;5022184;28;20322;-60
2022/03/12 04:39:26;;;;;;;;;;;;;;;;;;5025605;28;19957;-61
2022/03/12 04:41:53;;;;;;;;;;;;;;;;;;5012482;28;19954;-66
2022/03/12 04:44:20;;;;;;;;;;;;;;;;;;5008691;28;20343;-65
2022/03/12 04:46:46;;;;;;;;;;;;;;;;;;5025778;28;20068;-66
2022/03/12 04:49:12;;;;;;;;;;;;;;;;;;5016435;28;20405;-65
2022/03/12 04:51:38;;;;;;;;;;;;;;;;;;5017820;28;19958;-65
2022/03/12 04:54:05;;;;;;;;;;;;;;;;;;5018614;28;20432;-65
2022/03/12 04:56:31;;;;;;;;;;;;;;;;;;5009679;28;20010;-65
2022/03/12 04:58:57;;;;;;;;;;;;;;;;;;5013963;28;19951;-66
2022/03/12 05:01:24;;;;;;;;;;;;;;;;;;5015154;28;19950;-65
2022/03/12 05:03:50;;;;;;;;;;;;;;;;;;5015337;28;20062;-65
2022/03/12 05:06:18;;;;;;;;;;;;;;;;;;5016563;28;19964;-63
2022/03/12 05:08:45;;;;;;;;;;;;;;;;;;5017155;28;20078;-65
2022/03/12 05:11:11;;;;;;;;;;;;;;;;;;5010502;28;20087;-63
2022/03/12 05:13:37;;;;;;;;;;;;;;;;;;5012218;28;19968;-64
2022/03/12 05:16:05;;;;;;;;;;;;;;;;;;5020788;28;19962;-65
2022/03/12 05:18:31;;;;;;;;;;;;;;;;;;5025136;28;19987;-64
2022/03/12 05:20:58;;;;;;;;;;;;;;;;;;5022734;28;19951;-64
2022/03/12 05:23:24;;;;;;;;;;;;;;;;;;5017662;28;19969;-64
2022/03/12 05:25:50;;;;;;;;;;;;;;;;;;5026132;28;19949;-62
2022/03/12 05:28:17;;;;;;;;;;;;;;;;;;5009876;28;20356;-62
2022/03/12 05:30:43;;;;;;;;;;;;;;;;;;5024832;28;19948;-62
2022/03/12 05:33:10;;;;;;;;;;;;;;;;;;5011206;28;20304;-64
2022/03/12 05:35:41;;;;;;;;;;;;;;;;;;5018489;28;20363;-59
2022/03/12 05:38:07;;;;;;;;;;;;;;;;;;5018946;28;19963;-60
2022/03/12 05:40:38;;;;;;;;;;;;;;;;;;5017459;28;19975;-60
2022/03/12 05:43:10;;;;;;;;;;;;;;;;;;5012771;28;20036;-62
2022/03/12 05:45:37;;;;;;;;;;;;;;;;;;5010459;28;19959;-61
2022/03/12 05:48:03;;;;;;;;;;;;;;;;;;5008929;28;20063;-62
2022/03/12 05:50:29;;;;;;;;;;;;;;;;;;5016341;28;19948;-59
2022/03/12 05:52:55;;;;;;;;;;;;;;;;;;5020367;28;19955;-61
2022/03/12 05:55:21;;;;;;;;;;;;;;;;;;5015988;28;20312;-59
2022/03/12 05:57:49;;;;;;;;;;;;;;;;;;5017505;28;21398;-61
2022/03/12 06:00:16;;;;;;;;;;;;;;;;;;5006846;28;20408;-61
2022/03/12 06:02:50;;;;;;;;;;;;;;;;;;5018897;28;19964;-59
2022/03/12 06:05:17;;;;;;;;;;;;;;;;;;5013402;28;19965;-59
2022/03/12 06:07:45;;;;;;;;;;;;;;;;;;5017324;28;20318;-59
2022/03/12 06:10:11;;;;;;;;;;;;;;;;;;5007438;28;19977;-61
2022/03/12 06:12:39;;;;;;;;;;;;;;;;;;5012509;28;19953;-60
2022/03/12 06:15:06;;;;;;;;;;;;;;;;;;5017105;28;19964;-60
2022/03/12 06:17:32;;;;;;;;;;;;;;;;;;5015562;28;19997;-63
2022/03/12 06:19:58;;;;;;;;;;;;;;;;;;5007706;28;19948;-64
2022/03/12 06:22:24;;;;;;;;;;;;;;;;;;5016345;28;20089;-62
2022/03/12 06:24:50;;;;;;;;;;;;;;;;;;5021806;28;19964;-63
2022/03/12 06:27:22;;;;;;;;;;;;;;;;;;5015433;28;19965;-62
2022/03/12 06:29:48;;;;;;;;;;;;;;;;;;5017122;28;20437;-63
2022/03/12 06:32:14;;;;;;;;;;;;;;;;;;5021269;28;19951;-62
2022/03/12 06:34:41;;;;;;;;;;;;;;;;;;5016936;28;20495;-61
2022/03/12 06:37:08;;;;;;;;;;;;;;;;;;5017823;28;19997;-59
2022/03/12 06:39:34;;;;;;;;;;;;;;;;;;5014805;28;20488;-58
2022/03/12 06:42:02;;;;;;;;;;;;;;;;;;5018226;28;19954;-58
2022/03/12 06:44:32;;;;;;;;;;;;;;;;;;5013969;28;20075;-59
2022/03/12 06:46:58;;;;;;;;;;;;;;;;;;5011927;28;20067;-58
2022/03/12 06:49:24;;;;;;;;;;;;;;;;;;5012810;28;19951;-59
2022/03/12 06:51:51;;;;;;;;;;;;;;;;;;5020414;28;19958;-59
2022/03/12 06:54:17;;;;;;;;;;;;;;;;;;5020328;28;20129;-59
2022/03/12 06:56:43;;;;;;;;;;;;;;;;;;5025008;28;19948;-59
2022/03/12 06:59:09;;;;;;;;;;;;;;;;;;5014353;28;19948;-59
2022/03/12 07:01:35;;;;;;;;;;;;;;;;;;5024436;28;19946;-59
2022/03/12 07:04:01;;;;;;;;;;;;;;;;;;5017639;28;19966;-61
2022/03/12 07:06:28;;;;;;;;;;;;;;;;;;5015449;28;19959;-63
2022/03/12 07:08:54;;;;;;;;;;;;;;;;;;5021104;28;20349;-62
2022/03/12 07:11:20;;;;;;;;;;;;;;;;;;5014636;28;19950;-62
2022/03/12 07:13:46;;;;;;;;;;;;;;;;;;5007516;28;19973;-61
2022/03/12 07:16:13;;;;;;;;;;;;;;;;;;5013582;28;19954;-62
2022/03/12 07:18:39;;;;;;;;;;;;;;;;;;5037898;23;20136;-61
2022/03/12 07:21:05;;;;;;;;;;;;;;;;;;5028138;28;19946;-63
2022/03/12 07:23:31;;;;;;;;;;;;;;;;;;5038722;28;20372;-63
2022/03/12 07:25:58;;;;;;;;;;;;;;;;;;5037680;28;20038;-66
2022/03/12 07:28:24;;;;;;;;;;;;;;;;;;5035697;28;19961;-64
2022/03/12 07:30:50;;;;;;;;;;;;;;;;;;5035238;28;19950;-61
2022/03/12 07:33:16;;;;;;;;;;;;;;;;;;5033235;28;19963;-64
2022/03/12 07:35:43;;;;;;;;;;;;;;;;;;5038530;28;19950;-60
2022/03/12 07:38:09;;;;;;;;;;;;;;;;;;5031058;28;19941;-60
2022/03/12 07:40:35;;;;;;;;;;;;;;;;;;5042972;28;19974;-59
2022/03/12 07:43:01;;;;;;;;;;;;;;;;;;5026941;28;19944;-60
2022/03/12 07:45:28;;;;;;;;;;;;;;;;;;5043235;28;20048;-60
2022/03/12 07:47:55;;;;;;;;;;;;;;;;;;5026891;28;20067;-59
2022/03/12 07:50:21;;;;;;;;;;;;;;;;;;5036743;28;19952;-59
2022/03/12 07:52:47;;;;;;;;;;;;;;;;;;5024575;28;20318;-60
2022/03/12 07:55:16;;;;;;;;;;;;;;;;;;5025038;28;19960;-59
2022/03/12 07:57:42;;;;;;;;;;;;;;;;;;5026180;28;19952;-59
2022/03/12 08:00:08;;;;;;;;;;;;;;;;;;5025263;28;19945;-60
2022/03/12 08:02:34;;;;;;;;;;;;;;;;;;5024547;28;19962;-60
2022/03/12 08:05:00;;;;;;;;;;;;;;;;;;5033152;28;19961;-60
2022/03/12 08:07:28;;;;;;;;;;;;;;;;;;5033825;28;19959;-60
2022/03/12 08:09:56;;;;;;;;;;;;;;;;;;5035158;28;20000;-60
2022/03/12 08:12:23;;;;;;;;;;;;;;;;;;5023963;28;19949;-60
2022/03/12 08:14:49;;;;;;;;;;;;;;;;;;5026749;28;20038;-60
2022/03/12 08:17:15;;;;;;;;;;;;;;;;;;5031601;28;19957;-59
2022/03/12 08:19:42;;;;;;;;;;;;;;;;;;5032702;28;19955;-60
2022/03/12 08:22:08;;;;;;;;;;;;;;;;;;5036843;28;20076;-61
2022/03/12 08:24:34;;;;;;;;;;;;;;;;;;5040087;28;19958;-61
2022/03/12 08:27:00;;;;;;;;;;;;;;;;;;5048062;28;20064;-60
2022/03/12 08:29:26;;;;;;;;;;;;;;;;;;5044678;28;20000;-61
2022/03/12 08:31:53;;;;;;;;;;;;;;;;;;5043873;28;19995;-62
2022/03/12 08:34:19;;;;;;;;;;;;;;;;;;5032415;28;19973;-60
2022/03/12 08:36:45;;;;;;;;;;;;;;;;;;5045150;28;19951;-61
2022/03/12 08:39:11;;;;;;;;;;;;;;;;;;5042893;28;20313;-61
2022/03/12 08:41:38;;;;;;;;;;;;;;;;;;5041446;28;19950;-61
2022/03/12 08:44:05;;;;;;;;;;;;;;;;;;5045167;28;19967;-60
2022/03/12 08:46:31;;;;;;;;;;;;;;;;;;5035096;28;20449;-61
2022/03/12 08:48:57;;;;;;;;;;;;;;;;;;5037946;28;20068;-61
2022/03/12 08:51:24;;;;;;;;;;;;;;;;;;5029093;28;19962;-61
2022/03/12 08:53:50;;;;;;;;;;;;;;;;;;5039279;28;20059;-60
2022/03/12 08:56:16;;;;;;;;;;;;;;;;;;5030159;28;19952;-61
2022/03/12 08:58:42;;;;;;;;;;;;;;;;;;5033369;28;20105;-61
2022/03/12 09:01:09;;;;;;;;;;;;;;;;;;5033653;28;19950;-60
2022/03/12 09:03:35;;;;;;;;;;;;;;;;;;5033590;28;20022;-62
2022/03/12 09:06:02;;;;;;;;;;;;;;;;;;5025699;28;19952;-67
2022/03/12 09:08:28;;;;;;;;;;;;;;;;;;5024354;28;20198;-67
2022/03/12 09:10:54;;;;;;;;;;;;;;;;;;5037390;28;19952;-70
2022/03/12 09:13:21;;;;;;;;;;;;;;;;;;5022477;28;19970;-66
2022/03/12 09:15:47;;;;;;;;;;;;;;;;;;5030534;28;20512;-67
2022/03/12 09:18:15;;;;;;;;;;;;;;;;;;5028748;28;19961;-67
2022/03/12 09:20:44;;;;;;;;;;;;;;;;;;5025377;28;19971;-66
2022/03/12 09:23:10;;;;;;;;;;;;;;;;;;5020238;28;19967;-67
2022/03/12 09:25:36;;;;;;;;;;;;;;;;;;5017204;28;19968;-67
2022/03/12 09:28:03;;;;;;;;;;;;;;;;;;5024786;28;19975;-67
2022/03/12 09:30:32;;;;;;;;;;;;;;;;;;4446864;28;10000742;-67
2022/03/12 09:32:59;;;;;;;;;;;;;;;;;;5031685;28;20058;-67
2022/03/12 09:35:25;;;;;;;;;;;;;;;;;;5020125;28;20329;-67
2022/03/12 09:37:51;;;;;;;;;;;;;;;;;;5010312;28;19958;-67
2022/03/12 09:40:17;;;;;;;;;;;;;;;;;;5015491;28;19965;-67
2022/03/12 09:42:43;;;;;;;;;;;;;;;;;;5043654;28;19963;-68
2022/03/12 09:45:09;;;;;;;;;;;;;;;;;;5026905;28;19994;-68
2022/03/12 09:47:36;;;;;;;;;;;;;;;;;;5033561;28;20055;-68
2022/03/12 09:50:02;;;;;;;;;;;;;;;;;;5028826;28;20025;-67
2022/03/12 09:52:29;;;;;;;;;;;;;;;;;;5016979;28;19965;-68
2022/03/12 09:54:55;;;;;;;;;;;;;;;;;;5024973;28;19972;-68
2022/03/12 09:57:21;;;;;;;;;;;;;;;;;;5026576;28;19958;-68
2022/03/12 09:59:48;;;;;;;;;;;;;;;;;;5013496;28;19958;-68
2022/03/12 10:02:14;;;;;;;;;;;;;;;;;;5018726;28;20406;-68
2022/03/12 10:04:40;;;;;;;;;;;;;;;;;;5012399;28;19975;-68
2022/03/12 10:07:09;;;;;;;;;;;;;;;;;;5018263;28;19967;-68
2022/03/12 10:09:35;;;;;;;;;;;;;;;;;;5018138;28;19960;-67
2022/03/12 10:12:01;;;;;;;;;;;;;;;;;;5024820;28;20406;-67
2022/03/12 10:14:28;;;;;;;;;;;;;;;;;;5019433;28;19976;-66
2022/03/12 10:16:54;;;;;;;;;;;;;;;;;;5022104;28;20545;-67
2022/03/12 10:19:20;;;;;;;;;;;;;;;;;;5033544;28;20475;-67
2022/03/12 10:21:46;;;;;;;;;;;;;;;;;;5035325;28;20424;-67
2022/03/12 10:24:12;;;;;;;;;;;;;;;;;;5028675;28;19979;-67
2022/03/12 10:26:39;;;;;;;;;;;;;;;;;;5028728;28;19965;-67
2022/03/12 10:29:05;;;;;;;;;;;;;;;;;;5022929;28;19976;-67
2022/03/12 10:31:31;;;;;;;;;;;;;;;;;;5030102;28;19960;-68
2022/03/12 10:33:57;;;;;;;;;;;;;;;;;;5024344;28;19970;-67
2022/03/12 10:36:24;;;;;;;;;;;;;;;;;;5032476;28;20023;-67
2022/03/12 10:38:51;;;;;;;;;;;;;;;;;;5043259;28;20459;-67
2022/03/12 10:41:17;;;;;;;;;;;;;;;;;;5033497;28;19958;-68
2022/03/12 10:43:43;;;;;;;;;;;;;;;;;;5024188;28;20372;-67
2022/03/12 10:46:09;;;;;;;;;;;;;;;;;;5032333;28;19975;-67
2022/03/12 10:48:36;;;;;;;;;;;;;;;;;;5031006;28;19980;-67
2022/03/12 10:51:03;;;;;;;;;;;;;;;;;;5040181;28;20173;-67
2022/03/12 10:53:29;;;;;;;;;;;;;;;;;;5033484;28;20437;-67
2022/03/12 10:55:55;;;;;;;;;;;;;;;;;;5031912;28;19954;-68
2022/03/12 10:58:22;;;;;;;;;;;;;;;;;;5013118;28;20479;-68
2022/03/12 11:00:48;;;;;;;;;;;;;;;;;;5013011;28;19978;-67
2022/03/12 11:03:14;;;;;;;;;;;;;;;;;;5013294;28;19970;-68
2022/03/12 11:05:42;;;;;;;;;;;;;;;;;;5045204;28;20002;-69
2022/03/12 11:08:09;;;;;;;;;;;;;;;;;;5033902;28;20016;-69
2022/03/12 11:10:37;;;;;;;;;;;;;;;;;;5020046;28;19982;-68
2022/03/12 11:13:04;;;;;;;;;;;;;;;;;;5016395;28;20501;-69
2022/03/12 11:15:32;;;;;;;;;;;;;;;;;;5036160;28;19984;-68
2022/03/12 11:17:58;;;;;;;;;;;;;;;;;;5039056;28;20488;-67
2022/03/12 11:20:25;;;;;;;;;;;;;;;;;;5037951;28;19992;-68
2022/03/12 11:22:51;;;;;;;;;;;;;;;;;;5030103;28;20161;-68
2022/03/12 11:25:18;;;;;;;;;;;;;;;;;;5017400;28;20100;-68
2022/03/12 11:27:49;;;;;;;;;;;;;;;;;;5028422;28;20100;-68
2022/03/12 11:30:16;;;;;;;;;;;;;;;;;;5023512;28;19982;-67
2022/03/12 11:32:44;;;;;;;;;;;;;;;;;;5027198;28;20170;-68
2022/03/12 11:35:11;;;;;;;;;;;;;;;;;;5033197;28;19993;-68
2022/03/12 11:37:37;;;;;;;;;;;;;;;;;;5033667;28;20000;-68
2022/03/12 11:40:03;;;;;;;;;;;;;;;;;;5015490;28;19996;-68
2022/03/12 11:42:30;;;;;;;;;;;;;;;;;;5011683;28;20447;-67
2022/03/12 11:44:56;;;;;;;;;;;;;;;;;;5019762;28;19989;-68
2022/03/12 11:47:22;;;;;;;;;;;;;;;;;;5038365;28;19981;-68
2022/03/12 11:49:48;;;;;;;;;;;;;;;;;;5024869;28;20022;-68
2022/03/12 11:52:15;;;;;;;;;;;;;;;;;;5033852;28;19973;-67
2022/03/12 11:54:43;;;;;;;;;;;;;;;;;;5025649;28;20182;-68
2022/03/12 11:57:09;;;;;;;;;;;;;;;;;;5030357;28;19977;-68
2022/03/12 11:59:36;;;;;;;;;;;;;;;;;;5017572;28;20065;-68
2022/03/12 12:02:02;;;;;;;;;;;;;;;;;;5010807;28;19996;-68
2022/03/12 12:04:32;;;;;;;;;;;;;;;;;;5016200;28;20466;-68
2022/03/12 12:06:59;;;;;;;;;;;;;;;;;;5039671;28;20068;-68
2022/03/12 12:09:25;;;;;;;;;;;;;;;;;;5029800;28;19989;-66
2022/03/12 12:11:52;;;;;;;;;;;;;;;;;;5018836;28;19981;-67
2022/03/12 12:14:19;;;;;;;;;;;;;;;;;;5014210;28;20729;-68
2022/03/12 12:16:46;;;;;;;;;;;;;;;;;;5039929;28;20071;-67
2022/03/12 12:19:12;;;;;;;;;;;;;;;;;;5021946;28;19982;-67
2022/03/12 12:21:38;;;;;;;;;;;;;;;;;;5032445;28;19972;-68
2022/03/12 12:24:04;;;;;;;;;;;;;;;;;;5030511;28;20084;-68
2022/03/12 12:26:30;;;;;;;;;;;;;;;;;;5019952;28;20081;-67
2022/03/12 12:28:57;;;;;;;;;;;;;;;;;;5036428;28;20019;-68
2022/03/12 12:31:23;;;;;;;;;;;;;;;;;;5022668;28;19986;-68
2022/03/12 12:33:49;;;;;;;;;;;;;;;;;;5009022;28;20002;-68
2022/03/12 12:36:16;;;;;;;;;;;;;;;;;;5026478;28;20012;-67
2022/03/12 12:38:43;;;;;;;;;;;;;;;;;;5038430;28;19983;-67
2022/03/12 12:41:10;;;;;;;;;;;;;;;;;;5028498;28;20001;-68
2022/03/12 12:43:36;;;;;;;;;;;;;;;;;;5008849;28;20089;-68
2022/03/12 12:46:04;;;;;;;;;;;;;;;;;;5011789;28;20024;-68
2022/03/12 12:48:30;;;;;;;;;;;;;;;;;;5035777;28;20028;-68
2022/03/12 12:50:56;;;;;;;;;;;;;;;;;;5030488;28;19981;-67
2022/03/12 12:53:22;;;;;;;;;;;;;;;;;;5036361;28;19993;-66
2022/03/12 12:55:49;;;;;;;;;;;;;;;;;;5033733;28;20075;-67
2022/03/12 12:58:15;;;;;;;;;;;;;;;;;;5032866;28;19973;-66
2022/03/12 13:00:42;;;;;;;;;;;;;;;;;;5033835;28;20064;-67
2022/03/12 13:03:08;;;;;;;;;;;;;;;;;;5036254;28;20080;-69
2022/03/12 13:05:34;;;;;;;;;;;;;;;;;;5032085;28;19974;-68
2022/03/12 13:08:01;;;;;;;;;;;;;;;;;;5026438;28;19978;-68
2022/03/12 13:10:27;;;;;;;;;;;;;;;;;;5035967;28;20441;-67
2022/03/12 13:12:53;;;;;;;;;;;;;;;;;;5009610;28;20377;-68
2022/03/12 13:15:19;;;;;;;;;;;;;;;;;;5022246;28;19984;-68
2022/03/12 13:17:46;;;;;;;;;;;;;;;;;;5029688;28;19983;-68
2022/03/12 13:20:12;;;;;;;;;;;;;;;;;;5009668;28;19958;-68
2022/03/12 13:22:38;;;;;;;;;;;;;;;;;;5036863;28;19976;-69
2022/03/12 13:25:05;;;;;;;;;;;;;;;;;;5034775;28;20067;-68
2022/03/12 13:27:31;;;;;;;;;;;;;;;;;;5033725;28;19957;-68
2022/03/12 13:29:57;;;;;;;;;;;;;;;;;;5024990;28;19929;-68
2022/03/12 13:32:23;;;;;;;;;;;;;;;;;;5022479;28;20306;-68
2022/03/12 13:34:49;;;;;;;;;;;;;;;;;;5021536;28;19929;-68
2022/03/12 13:37:16;;;;;;;;;;;;;;;;;;5039767;28;20302;-68
2022/03/12 13:39:42;;;;;;;;;;;;;;;;;;5034653;28;19933;-68
2022/03/12 13:42:09;;;;;;;;;;;;;;;;;;5028614;28;20048;-68
2022/03/12 13:44:35;;;;;;;;;;;;;;;;;;5027216;28;20015;-68
2022/03/12 13:47:02;;;;;;;;;;;;;;;;;;5040679;28;19953;-68
2022/03/12 13:49:29;;;;;;;;;;;;;;;;;;5035307;28;19969;-68
2022/03/12 13:51:56;;;;;;;;;;;;;;;;;;5036223;28;20199;-68
2022/03/12 13:54:23;;;;;;;;;;;;;;;;;;5027688;28;19929;-68
2022/03/12 13:56:49;;;;;;;;;;;;;;;;;;5030308;28;20672;-67
2022/03/12 13:59:15;;;;;;;;;;;;;;;;;;5043600;28;19984;-68
2022/03/12 14:01:41;;;;;;;;;;;;;;;;;;5027735;28;19968;-69
2022/03/12 14:04:08;;;;;;;;;;;;;;;;;;5028249;28;20359;-68
2022/03/12 14:06:34;;;;;;;;;;;;;;;;;;5032401;28;19931;-69
2022/03/12 14:09:02;;;;;;;;;;;;;;;;;;5039232;28;20023;-68
2022/03/12 14:11:29;;;;;;;;;;;;;;;;;;5039756;28;19935;-68
2022/03/12 14:13:55;;;;;;;;;;;;;;;;;;5026739;28;20060;-68
2022/03/12 14:16:22;;;;;;;;;;;;;;;;;;5014938;28;19925;-68
2022/03/12 14:18:48;;;;;;;;;;;;;;;;;;5032525;28;20002;-67
2022/03/12 14:21:15;;;;;;;;;;;;;;;;;;5030562;28;19982;-67
2022/03/12 14:23:42;;;;;;;;;;;;;;;;;;5037853;28;19951;-67
2022/03/12 14:26:08;;;;;;;;;;;;;;;;;;5040683;28;20362;-67
2022/03/12 14:28:36;;;;;;;;;;;;;;;;;;5028828;28;19937;-67
2022/03/12 14:31:03;;;;;;;;;;;;;;;;;;5027535;28;19940;-67
2022/03/12 14:33:30;;;;;;;;;;;;;;;;;;5025858;28;20001;-67
2022/03/12 14:35:57;;;;;;;;;;;;;;;;;;5027196;28;20019;-66
2022/03/12 14:38:24;;;;;;;;;;;;;;;;;;5037914;28;19951;-67
2022/03/12 14:40:50;;;;;;;;;;;;;;;;;;5024313;28;19933;-67
2022/03/12 14:43:17;;;;;;;;;;;;;;;;;;5027117;28;20052;-66
2022/03/12 14:45:44;;;;;;;;;;;;;;;;;;5023311;28;19964;-67
2022/03/12 14:48:11;;;;;;;;;;;;;;;;;;5016136;28;20480;-67
2022/03/12 14:50:37;;;;;;;;;;;;;;;;;;5017215;28;19933;-67
2022/03/12 14:53:03;;;;;;;;;;;;;;;;;;5021610;28;20042;-67
2022/03/12 14:55:30;;;;;;;;;;;;;;;;;;5021832;28;19929;-68
2022/03/12 14:57:56;;;;;;;;;;;;;;;;;;5019682;28;19933;-67
2022/03/12 15:00:23;;;;;;;;;;;;;;;;;;5023624;28;19940;-68
2022/03/12 15:02:49;;;;;;;;;;;;;;;;;;5022649;28;19929;-68
2022/03/12 15:05:16;;;;;;;;;;;;;;;;;;5025699;28;19939;-67
2022/03/12 15:07:42;;;;;;;;;;;;;;;;;;5025176;28;19929;-67
2022/03/12 15:10:09;;;;;;;;;;;;;;;;;;5027479;28;19935;-67
2022/03/12 15:12:38;;;;;;;;;;;;;;;;;;5029710;28;19932;-68
2022/03/12 15:15:05;;;;;;;;;;;;;;;;;;5029921;28;20037;-68
2022/03/12 15:17:31;;;;;;;;;;;;;;;;;;5030549;28;19936;-68
2022/03/12 15:19:58;;;;;;;;;;;;;;;;;;5033846;28;19933;-68
2022/03/12 15:22:24;;;;;;;;;;;;;;;;;;5040261;28;20434;-68
2022/03/12 15:24:50;;;;;;;;;;;;;;;;;;5022641;28;19933;-68
2022/03/12 15:27:17;;;;;;;;;;;;;;;;;;5034717;28;19975;-68
2022/03/12 15:29:43;;;;;;;;;;;;;;;;;;5032910;28;20265;-68
2022/03/12 15:32:09;;;;;;;;;;;;;;;;;;5035205;28;20401;-68
2022/03/12 15:34:36;;;;;;;;;;;;;;;;;;5031140;28;19940;-67
2022/03/12 15:37:02;;;;;;;;;;;;;;;;;;5023086;28;19940;-68
2022/03/12 15:39:28;;;;;;;;;;;;;;;;;;5030882;28;19929;-67
2022/03/12 15:41:56;;;;;;;;;;;;;;;;;;5030656;28;19929;-67
2022/03/12 15:44:22;;;;;;;;;;;;;;;;;;5030994;28;19929;-69
2022/03/12 15:46:49;;;;;;;;;;;;;;;;;;5028055;28;19930;-66
2022/03/12 15:49:15;;;;;;;;;;;;;;;;;;5040659;28;19939;-68
2022/03/12 15:51:41;;;;;;;;;;;;;;;;;;5031753;28;19925;-68
2022/03/12 15:54:07;;;;;;;;;;;;;;;;;;5036921;28;19961;-68
2022/03/12 15:56:34;;;;;;;;;;;;;;;;;;5023740;28;20365;-68
2022/03/12 15:59:02;;;;;;;;;;;;;;;;;;5044930;28;20020;-67
2022/03/12 16:01:28;;;;;;;;;;;;;;;;;;5030270;28;20020;-69
2022/03/12 16:03:54;;;;;;;;;;;;;;;;;;5029518;28;19925;-67
2022/03/12 16:06:21;;;;;;;;;;;;;;;;;;5033317;28;20796;-68
2022/03/12 16:08:47;;;;;;;;;;;;;;;;;;5033191;28;20044;-68
2022/03/12 16:11:13;;;;;;;;;;;;;;;;;;5029848;28;19989;-68
2022/03/12 16:13:40;;;;;;;;;;;;;;;;;;5027446;28;19941;-68
2022/03/12 16:16:07;;;;;;;;;;;;;;;;;;5029632;28;19929;-66
2022/03/12 16:18:42;;;;;;;;;;;;;;;;;;5027621;28;19936;-68
2022/03/12 16:21:08;;;;;;;;;;;;;;;;;;5025706;28;19936;-68
2022/03/12 16:23:35;;;;;;;;;;;;;;;;;;5028449;28;19925;-68
2022/03/12 16:26:02;;;;;;;;;;;;;;;;;;5024955;28;20370;-68
2022/03/12 16:28:28;;;;;;;;;;;;;;;;;;5026787;28;19929;-68
2022/03/12 16:30:54;;;;;;;;;;;;;;;;;;5023118;28;19929;-68
2022/03/12 16:33:20;;;;;;;;;;;;;;;;;;5025833;28;19939;-68
2022/03/12 16:35:48;;;;;;;;;;;;;;;;;;5022945;28;20125;-68
2022/03/12 16:38:14;;;;;;;;;;;;;;;;;;5020177;28;19933;-68
2022/03/12 16:40:40;;;;;;;;;;;;;;;;;;5025760;28;20302;-68